createdAt,value
2023-05-17T00:00:31.050Z,84.70
2023-05-17T00:02:57.841Z,84.50
2023-05-17T00:05:24.686Z,84.90
2023-05-17T00:07:51.622Z,84.60
2023-05-17T00:10:18.568Z,84.70
2023-05-17T00:12:46.137Z,84.60
2023-05-17T00:15:14.605Z,84.90
2023-05-17T00:17:41.438Z,86.20
2023-05-17T00:20:08.795Z,86.80
2023-05-17T00:22:35.655Z,87.80
2023-05-17T00:25:02.495Z,88.20
2023-05-17T00:27:29.327Z,89.90
2023-05-17T00:29:56.357Z,90.30
2023-05-17T00:32:23.266Z,89.60
2023-05-17T00:34:50.218Z,90.00
2023-05-17T00:37:17.039Z,89.40
2023-05-17T00:39:43.839Z,89.80
2023-05-17T00:42:11.682Z,89.20
2023-05-17T00:44:38.607Z,89.30
2023-05-17T00:47:05.617Z,89.30
2023-05-17T00:49:32.824Z,88.80
2023-05-17T00:52:00.048Z,88.60
2023-05-17T00:54:27.007Z,88.20
2023-05-17T00:56:54.710Z,87.70
2023-05-17T00:59:23.231Z,88.50
2023-05-17T01:01:51.491Z,89.50
2023-05-17T01:04:19.029Z,89.00
2023-05-17T01:06:46.278Z,89.80
2023-05-17T01:09:13.767Z,89.60
2023-05-17T01:12:15.433Z,88.70
2023-05-17T01:14:51.506Z,89.30
2023-05-17T01:17:21.540Z,89.10
2023-05-17T01:20:19.077Z,88.90
2023-05-17T01:23:04.308Z,88.50
2023-05-17T01:25:37.128Z,88.40
2023-05-17T01:28:05.356Z,88.30
2023-05-17T01:30:33.984Z,88.90
2023-05-17T01:33:02.481Z,88.50
2023-05-17T01:35:29.895Z,88.60
2023-05-17T01:37:56.897Z,88.50
2023-05-17T01:40:24.251Z,88.70
2023-05-17T01:42:57.371Z,88.20
2023-05-17T01:45:35.921Z,87.80
2023-05-17T01:48:11.906Z,87.40
2023-05-17T01:50:39.867Z,87.20
2023-05-17T01:53:10.999Z,86.80
2023-05-17T01:55:56.797Z,86.20
2023-05-17T01:58:26.170Z,86.70
2023-05-17T02:00:55.988Z,86.80
2023-05-17T02:03:22.983Z,87.20
2023-05-17T02:05:49.978Z,87.30
2023-05-17T02:08:16.794Z,87.60
2023-05-17T02:10:43.595Z,87.60
2023-05-17T02:13:10.825Z,87.60
2023-05-17T02:15:37.642Z,87.60
2023-05-17T02:18:04.700Z,87.80
2023-05-17T02:20:31.559Z,88.10
2023-05-17T02:22:58.446Z,88.10
2023-05-17T02:25:25.335Z,88.60
2023-05-17T02:27:52.160Z,88.60
2023-05-17T02:30:22.104Z,88.50
2023-05-17T02:32:49.266Z,88.60
2023-05-17T02:35:16.193Z,88.90
2023-05-17T02:37:43.105Z,88.20
2023-05-17T02:40:10.549Z,87.80
2023-05-17T02:42:38.216Z,87.60
2023-05-17T02:45:05.473Z,87.80
2023-05-17T02:47:32.446Z,87.70
2023-05-17T02:49:59.281Z,87.60
2023-05-17T02:52:26.140Z,87.10
2023-05-17T02:54:53.158Z,87.20
2023-05-17T02:57:20.074Z,86.50
2023-05-17T02:59:46.971Z,86.60
2023-05-17T03:02:13.860Z,86.40
2023-05-17T03:04:40.740Z,86.70
2023-05-17T03:07:08.200Z,86.40
2023-05-17T03:09:35.487Z,87.00
2023-05-17T03:12:02.257Z,86.90
2023-05-17T03:14:29.116Z,87.20
2023-05-17T03:16:55.914Z,87.40
2023-05-17T03:19:22.819Z,88.10
2023-05-17T03:21:49.711Z,88.20
2023-05-17T03:24:16.550Z,88.80
2023-05-17T03:26:43.390Z,88.80
2023-05-17T03:29:10.444Z,88.60
2023-05-17T03:31:37.326Z,88.90
2023-05-17T03:34:04.218Z,89.00
2023-05-17T03:36:31.430Z,89.40
2023-05-17T03:38:58.208Z,89.60
2023-05-17T03:41:25.099Z,89.10
2023-05-17T03:43:51.962Z,88.60
2023-05-17T03:46:18.764Z,88.60
2023-05-17T03:48:45.601Z,88.10
2023-05-17T03:51:12.605Z,87.70
2023-05-17T03:53:43.231Z,87.80
2023-05-17T03:56:10.815Z,87.20
2023-05-17T03:58:37.945Z,86.40
2023-05-17T04:01:05.239Z,85.70
2023-05-17T04:03:32.231Z,85.40
2023-05-17T04:06:09.092Z,85.10
2023-05-17T04:08:36.174Z,84.00
2023-05-17T04:11:13.956Z,84.20
2023-05-17T04:13:42.107Z,83.10
2023-05-17T04:16:10.301Z,82.30
2023-05-17T04:18:38.808Z,81.50
2023-05-17T04:21:06.669Z,80.30
2023-05-17T04:23:34.748Z,79.50
2023-05-17T04:26:01.694Z,79.70
2023-05-17T04:28:28.559Z,79.40
2023-05-17T04:30:56.318Z,78.60
2023-05-17T04:33:24.272Z,77.80
2023-05-17T04:35:54.606Z,78.20
2023-05-17T04:38:21.686Z,76.90
2023-05-17T04:40:48.496Z,76.60
2023-05-17T04:43:15.475Z,77.00
2023-05-17T04:45:43.029Z,75.50
2023-05-17T04:48:10.010Z,75.00
2023-05-17T04:50:36.890Z,74.80
2023-05-17T04:53:03.696Z,75.00
2023-05-17T04:55:30.811Z,74.00
2023-05-17T04:57:57.812Z,73.20
2023-05-17T05:00:24.735Z,72.40
2023-05-17T05:02:51.530Z,72.20
2023-05-17T05:05:19.703Z,72.30
2023-05-17T05:07:46.559Z,72.30
2023-05-17T05:10:13.488Z,72.00
2023-05-17T05:12:40.307Z,71.80
2023-05-17T05:15:07.771Z,71.80
2023-05-17T05:17:34.786Z,70.60
2023-05-17T05:20:01.764Z,71.80
2023-05-17T05:22:28.573Z,71.60
2023-05-17T05:24:56.436Z,71.90
2023-05-17T05:27:23.274Z,70.70
2023-05-17T05:29:50.334Z,71.20
2023-05-17T05:32:17.269Z,70.30
2023-05-17T05:34:44.201Z,71.30
2023-05-17T05:37:10.993Z,69.90
2023-05-17T05:39:37.921Z,68.70
2023-05-17T05:42:05.187Z,68.40
2023-05-17T05:44:32.011Z,68.20
2023-05-17T05:46:58.886Z,68.00
2023-05-17T05:49:25.772Z,66.70
2023-05-17T05:51:52.596Z,67.20
2023-05-17T05:54:19.422Z,66.70
2023-05-17T05:56:46.240Z,67.70
2023-05-17T05:59:13.006Z,66.90
2023-05-17T06:01:39.906Z,66.00
2023-05-17T06:04:06.768Z,67.30
2023-05-17T06:06:33.824Z,65.50
2023-05-17T06:09:00.761Z,66.30
2023-05-17T06:11:27.627Z,64.40
2023-05-17T06:13:54.488Z,63.40
2023-05-17T06:16:21.276Z,62.90
2023-05-17T06:18:50.946Z,61.70
2023-05-17T06:21:18.542Z,59.40
2023-05-17T06:23:45.526Z,57.90
2023-05-17T06:26:12.377Z,56.60
2023-05-17T06:28:39.307Z,56.80
2023-05-17T06:31:06.390Z,56.10
2023-05-17T06:33:33.282Z,57.00
2023-05-17T06:38:27.620Z,56.60
2023-05-17T06:40:55.862Z,56.40
2023-05-17T06:43:22.922Z,56.90
2023-05-17T06:45:49.852Z,58.80
2023-05-17T06:48:16.851Z,58.50
2023-05-17T06:50:43.823Z,57.70
2023-05-17T06:53:10.655Z,57.70
2023-05-17T06:55:37.496Z,56.90
2023-05-17T06:58:04.269Z,56.20
2023-05-17T07:00:31.933Z,57.70
2023-05-17T07:02:59.410Z,58.00
2023-05-17T07:05:28.246Z,58.90
2023-05-17T07:07:55.270Z,56.10
2023-05-17T07:10:22.141Z,56.20
2023-05-17T07:12:48.944Z,54.40
2023-05-17T07:15:16.037Z,55.20
2023-05-17T07:17:43.035Z,55.50
2023-05-17T07:20:10.536Z,54.90
2023-05-17T07:22:38.105Z,54.60
2023-05-17T07:25:05.612Z,54.30
2023-05-17T07:27:32.870Z,57.00
2023-05-17T07:30:01.700Z,55.90
2023-05-17T07:32:28.648Z,55.80
2023-05-17T07:34:55.559Z,54.20
2023-05-17T07:37:23.254Z,55.40
2023-05-17T07:39:50.032Z,55.40
2023-05-17T07:42:16.882Z,56.40
2023-05-17T07:44:43.853Z,54.10
2023-05-17T07:47:10.887Z,53.30
2023-05-17T07:49:41.058Z,52.90
2023-05-17T07:52:08.293Z,54.30
2023-05-17T07:54:35.347Z,54.50
2023-05-17T07:57:02.215Z,54.40
2023-05-17T07:59:32.176Z,56.20
2023-05-17T08:02:03.235Z,54.80
2023-05-17T08:04:30.087Z,55.70
2023-05-17T08:06:56.925Z,56.10
2023-05-17T08:09:23.797Z,55.70
2023-05-17T08:11:51.358Z,55.70
2023-05-17T08:14:21.865Z,56.70
2023-05-17T08:16:48.720Z,56.80
2023-05-17T08:19:19.621Z,56.90
2023-05-17T08:21:46.622Z,56.20
2023-05-17T08:24:13.505Z,56.00
2023-05-17T08:26:41.078Z,56.10
2023-05-17T08:29:07.972Z,55.60
2023-05-17T08:31:34.855Z,56.00
2023-05-17T08:34:01.713Z,56.60
2023-05-17T08:36:28.625Z,55.60
2023-05-17T08:38:55.837Z,55.40
2023-05-17T08:41:22.835Z,52.50
2023-05-17T08:43:50.921Z,55.40
2023-05-17T08:46:21.722Z,49.50
2023-05-17T08:48:51.847Z,50.80
2023-05-17T08:51:20.790Z,51.10
2023-05-17T08:53:50.222Z,52.40
2023-05-17T08:56:19.525Z,52.50
2023-05-17T09:01:19.321Z,52.40
2023-05-17T09:03:49.838Z,50.90
2023-05-17T09:06:20.321Z,52.40
2023-05-17T09:08:47.608Z,53.50
2023-05-17T09:11:25.813Z,53.70
2023-05-17T09:13:52.666Z,52.80
2023-05-17T09:16:21.426Z,49.80
2023-05-17T09:18:56.199Z,49.40
2023-05-17T09:21:24.461Z,48.50
2023-05-17T09:24:04.706Z,46.90
2023-05-17T09:26:40.598Z,50.10
2023-05-17T09:29:15.389Z,47.60
2023-05-17T09:31:43.375Z,45.30
2023-05-17T09:34:11.229Z,48.90
2023-05-17T09:36:41.984Z,46.80
2023-05-17T09:39:12.771Z,45.50
2023-05-17T09:41:47.939Z,42.50
2023-05-17T09:44:16.391Z,45.80
2023-05-17T09:46:46.092Z,45.30
2023-05-17T09:49:13.928Z,41.90
2023-05-17T09:51:46.754Z,42.30
2023-05-17T09:54:13.971Z,44.10
2023-05-17T09:56:41.326Z,42.20
2023-05-17T09:59:13.099Z,44.30
2023-05-17T10:01:41.951Z,45.80
2023-05-17T10:04:12.042Z,44.90
2023-05-17T10:06:47.481Z,45.80
2023-05-17T10:09:18.556Z,45.90
2023-05-17T10:11:47.118Z,44.00
2023-05-17T10:14:23.540Z,41.40
2023-05-17T10:16:51.672Z,40.70
2023-05-17T10:19:20.840Z,43.80
2023-05-17T10:21:53.162Z,43.40
2023-05-17T10:24:21.771Z,41.60
2023-05-17T10:26:51.221Z,41.80
2023-05-17T10:29:20.737Z,43.20
2023-05-17T10:31:50.235Z,41.60
2023-05-17T10:34:19.250Z,42.10
2023-05-17T10:36:48.839Z,40.20
2023-05-17T10:39:16.609Z,40.90
2023-05-17T10:41:46.609Z,41.60
2023-05-17T10:44:16.032Z,41.20
2023-05-17T10:46:58.539Z,42.10
2023-05-17T10:49:37.757Z,44.10
2023-05-17T10:52:18.870Z,45.10
2023-05-17T10:54:48.265Z,42.20
2023-05-17T11:00:12.278Z,41.60
2023-05-17T11:02:44.895Z,42.00
2023-05-17T11:05:25.992Z,45.30
2023-05-17T11:07:52.992Z,45.50
2023-05-17T11:10:19.794Z,45.30
2023-05-17T11:12:55.257Z,43.00
2023-05-17T11:15:26.540Z,39.90
2023-05-17T11:17:54.240Z,43.40
2023-05-17T11:20:27.608Z,42.00
2023-05-17T11:23:00.057Z,41.80
2023-05-17T11:25:47.040Z,39.80
2023-05-17T11:28:22.115Z,38.60
2023-05-17T11:30:53.670Z,39.40
2023-05-17T11:33:33.278Z,39.20
2023-05-17T11:36:06.825Z,39.70
2023-05-17T11:38:34.339Z,40.30
2023-05-17T11:41:26.636Z,40.10
2023-05-17T11:43:55.235Z,42.00
2023-05-17T11:46:24.200Z,40.10
2023-05-17T11:48:54.647Z,42.60
2023-05-17T11:51:24.697Z,41.80
2023-05-17T11:53:55.424Z,42.20
2023-05-17T11:56:29.082Z,38.70
2023-05-17T11:59:04.192Z,41.30
2023-05-17T12:01:46.348Z,38.80
2023-05-17T12:04:13.884Z,42.10
2023-05-17T12:06:41.364Z,40.20
2023-05-17T12:09:10.910Z,38.70
2023-05-17T12:11:39.570Z,39.20
2023-05-17T12:14:07.226Z,42.10
2023-05-17T12:16:36.201Z,42.00
2023-05-17T12:19:03.673Z,42.40
2023-05-17T12:21:30.751Z,43.80
2023-05-17T12:23:57.601Z,42.50
2023-05-17T12:26:24.861Z,40.60
2023-05-17T12:28:59.822Z,41.30
2023-05-17T12:31:29.538Z,41.30
2023-05-17T12:33:59.178Z,42.60
2023-05-17T12:36:29.105Z,44.50
2023-05-17T12:38:56.762Z,41.20
2023-05-17T12:41:26.212Z,44.20
2023-05-17T12:43:59.613Z,41.40
2023-05-17T12:46:32.129Z,42.40
2023-05-17T12:49:07.129Z,43.10
2023-05-17T12:51:44.800Z,44.90
2023-05-17T12:54:12.997Z,42.30
2023-05-17T12:56:43.780Z,45.00
2023-05-17T12:59:10.937Z,41.90
2023-05-17T13:01:45.942Z,41.70
2023-05-17T13:04:14.039Z,42.30
2023-05-17T13:06:49.821Z,41.80
2023-05-17T13:09:27.948Z,41.30
2023-05-17T13:11:59.300Z,40.70
2023-05-17T13:14:46.267Z,39.70
2023-05-17T13:17:24.398Z,40.50
2023-05-17T13:19:51.772Z,42.90
2023-05-17T13:22:18.795Z,39.70
2023-05-17T13:24:45.927Z,40.20
2023-05-17T13:27:13.062Z,40.30
2023-05-17T13:29:42.399Z,42.00
2023-05-17T13:32:11.442Z,44.10
2023-05-17T13:34:38.963Z,42.20
2023-05-17T13:37:08.818Z,42.20
2023-05-17T13:39:38.228Z,41.80
2023-05-17T13:42:05.750Z,40.10
2023-05-17T13:44:32.889Z,40.40
2023-05-17T13:46:59.897Z,41.10
2023-05-17T13:49:28.273Z,42.60
2023-05-17T13:51:55.097Z,43.20
2023-05-17T13:54:25.023Z,43.00
2023-05-17T13:56:51.937Z,43.20
2023-05-17T13:59:18.976Z,43.80
2023-05-17T14:01:45.970Z,44.70
2023-05-17T14:04:13.103Z,46.10
2023-05-17T14:06:39.983Z,45.90
2023-05-17T14:09:06.819Z,46.80
2023-05-17T14:11:34.297Z,45.80
2023-05-17T14:14:01.408Z,46.10
2023-05-17T14:16:28.264Z,47.20
2023-05-17T14:18:55.436Z,45.60
2023-05-17T14:21:22.315Z,45.30
2023-05-17T14:23:49.139Z,44.80
2023-05-17T14:26:16.257Z,45.40
2023-05-17T14:28:43.013Z,45.70
2023-05-17T14:31:10.859Z,46.00
2023-05-17T14:33:37.877Z,47.40
2023-05-17T14:36:04.954Z,48.00
2023-05-17T14:38:31.833Z,48.30
2023-05-17T14:41:00.711Z,49.40
2023-05-17T14:43:28.097Z,48.90
2023-05-17T14:45:54.902Z,46.80
2023-05-17T14:48:22.376Z,48.10
2023-05-17T14:50:49.512Z,49.20
2023-05-17T14:53:16.582Z,46.70
2023-05-17T14:55:43.589Z,48.00
2023-05-17T14:58:13.432Z,47.70
2023-05-17T15:00:41.907Z,47.30
2023-05-17T15:03:09.208Z,47.20
2023-05-17T15:05:37.002Z,45.70
2023-05-17T15:08:04.392Z,47.40
2023-05-17T15:10:31.764Z,47.20
2023-05-17T15:12:58.617Z,45.80
2023-05-17T15:15:25.402Z,46.30
2023-05-17T15:17:53.016Z,46.90
2023-05-17T15:20:20.412Z,47.40
2023-05-17T15:22:48.446Z,45.80
2023-05-17T15:25:16.574Z,45.60
2023-05-17T15:27:43.681Z,46.70
2023-05-17T15:30:13.295Z,46.80
2023-05-17T15:32:40.864Z,47.10
2023-05-17T15:35:08.210Z,48.40
2023-05-17T15:37:35.008Z,46.20
2023-05-17T15:40:09.795Z,46.90
2023-05-17T15:42:37.187Z,47.60
2023-05-17T15:45:04.345Z,46.70
2023-05-17T15:47:42.546Z,49.10
2023-05-17T15:50:11.080Z,47.00
2023-05-17T15:52:38.096Z,48.00
2023-05-17T15:55:05.403Z,47.80
2023-05-17T15:57:32.344Z,47.60
2023-05-17T15:59:59.308Z,47.80
2023-05-17T16:02:26.288Z,47.50
2023-05-17T16:04:53.167Z,47.60
2023-05-17T16:07:20.060Z,48.40
2023-05-17T16:09:46.841Z,47.90
2023-05-17T16:12:13.631Z,48.70
2023-05-17T16:14:40.788Z,49.30
2023-05-17T16:17:07.758Z,54.20
2023-05-17T16:19:35.943Z,50.40
2023-05-17T16:22:02.909Z,52.90
2023-05-17T16:24:29.682Z,52.70
2023-05-17T16:26:56.855Z,52.60
2023-05-17T16:29:23.642Z,52.90
2023-05-17T16:31:51.538Z,52.00
2023-05-17T16:34:18.487Z,51.50
2023-05-17T16:36:49.625Z,51.20
2023-05-17T16:39:16.764Z,51.00
2023-05-17T16:41:43.580Z,52.10
2023-05-17T16:44:10.480Z,51.30
2023-05-17T16:46:38.115Z,50.70
2023-05-17T16:49:05.337Z,50.90
2023-05-17T16:51:32.116Z,50.80
2023-05-17T16:53:58.917Z,51.40
2023-05-17T16:56:26.365Z,50.10
2023-05-17T16:58:53.184Z,50.10
2023-05-17T17:01:20.042Z,51.40
2023-05-17T17:03:46.904Z,51.10
2023-05-17T17:06:13.761Z,51.30
2023-05-17T17:08:41.753Z,51.50
2023-05-17T17:11:08.574Z,51.00
2023-05-17T17:13:35.749Z,51.60
2023-05-17T17:16:02.662Z,50.50
2023-05-17T17:18:29.437Z,50.60
2023-05-17T17:20:57.202Z,50.80
2023-05-17T17:23:24.026Z,51.10
2023-05-17T17:25:50.961Z,51.10
2023-05-17T17:28:17.755Z,51.60
2023-05-17T17:30:44.567Z,51.60
2023-05-17T17:33:11.344Z,51.50
2023-05-17T17:35:38.654Z,52.30
2023-05-17T17:38:05.659Z,52.30
2023-05-17T17:40:32.746Z,52.80
2023-05-17T17:42:59.839Z,53.30
2023-05-17T17:45:26.675Z,53.20
2023-05-17T17:47:53.545Z,53.90
2023-05-17T17:50:20.425Z,54.40
2023-05-17T17:52:47.246Z,54.30
2023-05-17T17:55:15.105Z,54.30
2023-05-17T17:57:42.029Z,54.30
2023-05-17T18:00:11.722Z,53.90
2023-05-17T18:02:39.856Z,53.90
2023-05-17T18:05:07.151Z,53.50
2023-05-17T18:07:34.128Z,53.80
2023-05-17T18:10:01.928Z,54.30
2023-05-17T18:12:28.955Z,54.00
2023-05-17T18:14:55.995Z,54.30
2023-05-17T18:17:23.178Z,55.20
2023-05-17T18:19:50.121Z,56.30
2023-05-17T18:22:17.090Z,56.30
2023-05-17T18:24:44.694Z,56.30
2023-05-17T18:27:13.678Z,56.70
2023-05-17T18:29:41.217Z,56.60
2023-05-17T18:32:09.122Z,57.20
2023-05-17T18:34:36.626Z,57.40
2023-05-17T18:37:03.740Z,57.90
2023-05-17T18:39:30.638Z,58.10
2023-05-17T18:41:57.556Z,58.10
2023-05-17T18:44:24.422Z,58.80
2023-05-17T18:46:51.593Z,59.10
2023-05-17T18:49:18.417Z,59.40
2023-05-17T18:51:45.645Z,59.50
2023-05-17T18:54:12.459Z,59.70
2023-05-17T18:56:39.481Z,60.40
2023-05-17T18:59:06.452Z,60.70
2023-05-17T19:01:33.645Z,60.40
2023-05-17T19:04:00.845Z,61.90
2023-05-17T19:06:27.845Z,61.20
2023-05-17T19:08:55.173Z,62.10
2023-05-17T19:11:22.588Z,61.60
2023-05-17T19:13:49.920Z,62.10
2023-05-17T19:16:17.008Z,62.60
2023-05-17T19:18:43.794Z,63.00
2023-05-17T19:21:10.602Z,62.80
2023-05-17T19:23:37.448Z,63.00
2023-05-17T19:26:04.227Z,63.70
2023-05-17T19:28:32.999Z,63.60
2023-05-17T19:30:59.861Z,64.20
2023-05-17T19:33:26.811Z,64.00
2023-05-17T19:35:53.681Z,64.10
2023-05-17T19:38:50.534Z,64.30
2023-05-17T19:41:19.057Z,64.70
2023-05-17T19:43:45.931Z,64.60
2023-05-17T19:46:12.718Z,65.90
2023-05-17T19:48:39.946Z,66.50
2023-05-17T19:51:06.758Z,67.10
2023-05-17T19:53:50.940Z,67.40
2023-05-17T19:56:19.742Z,68.80
2023-05-17T19:58:46.680Z,68.40
2023-05-17T20:01:13.968Z,69.20
2023-05-17T20:03:40.923Z,68.30
2023-05-17T20:06:11.059Z,68.00
2023-05-17T20:08:37.875Z,70.00
2023-05-17T20:11:05.669Z,69.70
2023-05-17T20:13:34.159Z,70.70
2023-05-17T20:16:01.398Z,70.30
2023-05-17T20:18:30.145Z,70.20
2023-05-17T20:20:57.218Z,70.50
2023-05-17T20:23:24.192Z,71.40
2023-05-17T20:25:51.085Z,70.80
2023-05-17T20:28:18.112Z,71.80
2023-05-17T20:30:45.526Z,71.60
2023-05-17T20:33:14.789Z,73.60
2023-05-17T20:35:41.653Z,73.50
2023-05-17T20:38:08.520Z,74.90
2023-05-17T20:40:36.068Z,73.80
2023-05-17T20:43:03.528Z,74.70
2023-05-17T20:45:30.459Z,74.80
2023-05-17T20:47:57.767Z,74.40
2023-05-17T20:50:24.659Z,74.10
2023-05-17T20:52:51.529Z,74.40
2023-05-17T20:55:18.404Z,74.70
2023-05-17T20:57:45.244Z,74.20
2023-05-17T21:00:12.587Z,75.30
2023-05-17T21:02:39.517Z,75.50
2023-05-17T21:05:06.604Z,75.80
2023-05-17T21:07:34.876Z,74.70
2023-05-17T21:10:01.681Z,75.10
2023-05-17T21:12:28.505Z,75.10
2023-05-17T21:15:14.350Z,76.50
2023-05-17T21:17:42.192Z,76.40
2023-05-17T21:20:09.417Z,76.40
2023-05-17T21:22:36.337Z,76.70
2023-05-17T21:25:03.276Z,77.00
2023-05-17T21:27:30.162Z,76.30
2023-05-17T21:29:57.017Z,76.80
2023-05-17T21:32:23.817Z,77.40
2023-05-17T21:34:53.723Z,76.40
2023-05-17T21:37:21.369Z,77.40
2023-05-17T21:39:48.266Z,77.00
2023-05-17T21:42:15.044Z,77.80
2023-05-17T21:48:30.073Z,78.70
2023-05-17T21:50:56.926Z,79.50
2023-05-17T21:53:23.700Z,79.10
2023-05-17T21:56:01.352Z,80.10
2023-05-17T21:58:29.834Z,80.20
2023-05-17T22:00:57.021Z,79.90
2023-05-17T22:03:24.018Z,80.20
2023-05-17T22:05:52.251Z,79.90
2023-05-17T22:08:19.131Z,79.80
2023-05-17T22:10:46.635Z,80.00
2023-05-17T22:13:15.815Z,80.70
2023-05-17T22:15:42.915Z,80.40
2023-05-17T22:18:12.456Z,81.50
2023-05-17T22:20:39.587Z,82.00
2023-05-17T22:23:06.467Z,81.30
2023-05-17T22:25:33.331Z,81.00
2023-05-17T22:28:00.098Z,81.10
2023-05-17T22:30:26.906Z,81.20
2023-05-17T22:32:57.068Z,82.40
2023-05-17T22:35:24.477Z,82.10
2023-05-17T22:37:51.866Z,81.80
2023-05-17T22:40:18.842Z,82.10
2023-05-17T22:42:45.647Z,81.80
2023-05-17T22:45:12.713Z,82.30
2023-05-17T22:47:39.642Z,82.40
2023-05-17T22:50:07.015Z,82.80
2023-05-17T22:52:33.891Z,83.60
2023-05-17T22:55:01.375Z,84.60
2023-05-17T22:57:28.245Z,83.80
2023-05-17T22:59:55.034Z,83.90
2023-05-17T23:02:21.871Z,83.90
2023-05-17T23:04:48.688Z,83.50
2023-05-17T23:07:16.407Z,83.80
2023-05-17T23:09:43.259Z,84.50
2023-05-17T23:12:14.102Z,85.20
2023-05-17T23:14:41.207Z,86.30
2023-05-17T23:17:08.810Z,85.90
2023-05-17T23:19:35.748Z,86.40
2023-05-17T23:22:02.979Z,86.00
2023-05-17T23:24:30.039Z,86.60
2023-05-17T23:26:57.609Z,86.40
2023-05-17T23:29:25.898Z,86.30
2023-05-17T23:31:53.358Z,86.70
2023-05-17T23:38:01.074Z,87.40
2023-05-17T23:40:27.935Z,87.50
2023-05-17T23:42:54.773Z,87.80
2023-05-17T23:45:21.671Z,87.80
2023-05-17T23:47:50.220Z,87.70
2023-05-17T23:50:17.276Z,87.60
2023-05-17T23:52:44.196Z,87.90
2023-05-17T23:55:12.078Z,87.40
2023-05-17T23:57:40.069Z,87.60
